createdAt,value
2023-11-27T00:00:37.693Z,7.75
2023-11-27T00:03:08.094Z,6.47
2023-11-27T00:05:35.392Z,5.57
2023-11-27T00:08:02.548Z,6.50
2023-11-27T00:10:29.532Z,6.13
2023-11-27T00:13:01.249Z,4.65
2023-11-27T00:15:28.862Z,4.18
2023-11-27T00:17:55.982Z,5.00
2023-11-27T00:20:23.407Z,6.32
2023-11-27T00:22:50.179Z,8.18
2023-11-27T00:25:17.317Z,8.68
2023-11-27T00:27:44.396Z,9.32
2023-11-27T00:30:11.951Z,9.05
2023-11-27T00:32:38.851Z,13.18
2023-11-27T00:35:06.304Z,11.85
2023-11-27T00:37:33.686Z,14.02
2023-11-27T00:40:00.598Z,13.55
2023-11-27T00:42:27.461Z,14.05
2023-11-27T00:44:54.499Z,13.52
2023-11-27T00:47:21.386Z,12.48
2023-11-27T00:49:48.347Z,14.13
2023-11-27T00:52:15.726Z,12.43
2023-11-27T00:54:42.686Z,13.10
2023-11-27T00:57:10.128Z,11.65
2023-11-27T00:59:41.925Z,11.45
2023-11-27T01:02:09.276Z,11.50
2023-11-27T01:04:40.524Z,11.52
2023-11-27T01:07:07.773Z,11.90
2023-11-27T01:09:37.202Z,11.23
2023-11-27T01:12:04.480Z,11.10
2023-11-27T01:14:32.348Z,10.63
2023-11-27T01:17:00.092Z,10.35
2023-11-27T01:19:27.624Z,9.48
2023-11-27T01:21:54.743Z,9.63
2023-11-27T01:24:24.323Z,11.10
2023-11-27T01:26:53.553Z,9.57
2023-11-27T01:29:23.434Z,9.33
2023-11-27T01:31:50.496Z,9.52
2023-11-27T01:34:18.116Z,9.75
2023-11-27T01:36:45.739Z,10.65
2023-11-27T01:39:12.535Z,8.10
2023-11-27T01:41:40.060Z,9.95
2023-11-27T01:44:07.322Z,8.55
2023-11-27T01:46:34.920Z,9.18
2023-11-27T01:49:02.235Z,10.88
2023-11-27T01:51:30.994Z,8.27
2023-11-27T01:54:01.064Z,9.18
2023-11-27T01:58:58.662Z,10.82
2023-11-27T02:01:27.180Z,7.68
2023-11-27T02:03:54.117Z,7.40
2023-11-27T02:06:21.000Z,8.73
2023-11-27T02:08:47.924Z,7.97
2023-11-27T02:11:20.144Z,7.05
2023-11-27T02:13:47.511Z,8.65
2023-11-27T02:16:15.404Z,7.70
2023-11-27T02:18:43.254Z,10.10
2023-11-27T02:21:11.967Z,10.70
2023-11-27T02:23:39.769Z,9.55
2023-11-27T02:26:07.514Z,9.70
2023-11-27T02:28:34.427Z,6.40
2023-11-27T02:31:01.531Z,7.68
2023-11-27T02:33:28.575Z,7.28
2023-11-27T02:35:55.410Z,9.30
2023-11-27T02:38:22.427Z,7.40
2023-11-27T02:40:49.341Z,7.47
2023-11-27T02:43:16.266Z,7.53
2023-11-27T02:45:43.725Z,7.32
2023-11-27T02:48:10.677Z,9.07
2023-11-27T02:50:37.997Z,7.55
2023-11-27T02:53:04.769Z,7.25
2023-11-27T02:55:31.561Z,7.35
2023-11-27T02:57:58.451Z,7.50
2023-11-27T03:00:25.305Z,10.55
2023-11-27T03:02:52.173Z,6.32
2023-11-27T03:05:19.146Z,8.27
2023-11-27T03:07:46.239Z,8.63
2023-11-27T03:10:14.674Z,8.52
2023-11-27T03:12:42.758Z,4.85
2023-11-27T03:15:09.923Z,6.95
2023-11-27T03:17:42.470Z,8.13
2023-11-27T03:20:12.631Z,6.53
2023-11-27T03:22:42.706Z,6.93
2023-11-27T03:25:10.334Z,7.72
2023-11-27T03:27:37.381Z,6.30
2023-11-27T03:30:05.965Z,7.68
2023-11-27T03:32:33.766Z,10.00
2023-11-27T03:35:01.606Z,8.73
2023-11-27T03:37:30.353Z,7.18
2023-11-27T03:39:57.340Z,7.72
2023-11-27T03:42:24.240Z,8.25
2023-11-27T03:44:51.013Z,5.53
2023-11-27T03:47:17.897Z,6.10
2023-11-27T03:49:44.865Z,6.38
2023-11-27T03:52:12.956Z,10.00
2023-11-27T03:54:39.802Z,6.15
2023-11-27T03:57:07.135Z,6.85
2023-11-27T03:59:34.267Z,8.90
2023-11-27T04:02:01.694Z,5.85
2023-11-27T04:04:28.608Z,7.32
2023-11-27T04:06:55.853Z,6.20
2023-11-27T04:09:23.152Z,7.18
2023-11-27T04:11:50.387Z,5.75
2023-11-27T04:14:17.314Z,7.38
2023-11-27T04:16:44.795Z,7.38
2023-11-27T04:19:11.828Z,6.55
2023-11-27T04:21:39.122Z,5.60
2023-11-27T04:24:06.796Z,7.32
2023-11-27T04:26:33.810Z,6.07
2023-11-27T04:29:01.191Z,6.32
2023-11-27T04:31:28.090Z,7.78
2023-11-27T04:33:54.888Z,7.03
2023-11-27T04:36:22.785Z,7.20
2023-11-27T04:38:49.918Z,6.55
2023-11-27T04:41:17.992Z,8.35
2023-11-27T04:43:44.898Z,5.78
2023-11-27T04:46:12.650Z,7.97
2023-11-27T04:48:39.629Z,6.35
2023-11-27T04:51:06.998Z,10.02
2023-11-27T04:53:34.179Z,7.65
2023-11-27T04:56:01.196Z,9.27
2023-11-27T04:58:29.694Z,8.93
2023-11-27T05:00:56.975Z,7.93
2023-11-27T05:03:24.002Z,7.97
2023-11-27T05:05:50.882Z,9.70
2023-11-27T05:08:17.652Z,6.65
2023-11-27T05:10:45.879Z,7.90
2023-11-27T05:13:13.969Z,8.52
2023-11-27T05:15:40.779Z,9.05
2023-11-27T05:18:07.552Z,7.20
2023-11-27T05:20:34.702Z,8.07
2023-11-27T05:23:04.827Z,6.82
2023-11-27T05:27:58.511Z,8.18
2023-11-27T05:30:25.676Z,9.18
2023-11-27T05:32:53.400Z,7.43
2023-11-27T05:35:20.403Z,7.32
2023-11-27T05:37:47.272Z,8.13
2023-11-27T05:40:15.055Z,10.13
2023-11-27T05:42:42.169Z,7.28
2023-11-27T05:45:12.137Z,7.53
2023-11-27T05:47:42.348Z,9.55
2023-11-27T05:50:15.904Z,8.77
2023-11-27T05:52:42.826Z,9.13
2023-11-27T05:55:10.405Z,12.20
2023-11-27T05:57:37.856Z,11.38
2023-11-27T06:00:05.224Z,11.50
2023-11-27T06:02:39.285Z,12.65
2023-11-27T06:05:07.120Z,11.40
2023-11-27T06:07:35.043Z,11.05
2023-11-27T06:10:04.148Z,13.02
2023-11-27T06:12:31.251Z,8.55
2023-11-27T06:14:58.043Z,11.88
2023-11-27T06:17:24.890Z,12.77
2023-11-27T06:19:51.744Z,13.30
2023-11-27T06:22:18.566Z,18.30
2023-11-27T06:24:45.534Z,14.50
2023-11-27T06:27:12.347Z,15.45
2023-11-27T06:29:39.188Z,14.77
2023-11-27T06:32:06.350Z,11.60
2023-11-27T06:34:33.349Z,10.85
2023-11-27T06:37:00.188Z,12.13
2023-11-27T06:39:29.911Z,13.05
2023-11-27T06:41:56.649Z,13.57
2023-11-27T06:44:23.762Z,10.52
2023-11-27T06:46:50.721Z,9.70
2023-11-27T06:49:17.641Z,9.85
2023-11-27T06:51:44.492Z,8.35
2023-11-27T06:54:11.443Z,11.27
2023-11-27T06:56:38.525Z,11.57
2023-11-27T06:59:05.872Z,11.55
2023-11-27T07:01:33.582Z,10.73
2023-11-27T07:04:01.717Z,11.00
2023-11-27T07:06:29.068Z,13.40
2023-11-27T07:08:56.004Z,10.35
2023-11-27T07:11:26.292Z,11.07
2023-11-27T07:13:53.354Z,12.50
2023-11-27T07:16:20.557Z,13.50
2023-11-27T07:18:48.015Z,12.98
2023-11-27T07:21:15.068Z,12.27
2023-11-27T07:23:42.716Z,13.70
2023-11-27T07:26:09.704Z,15.85
2023-11-27T07:28:39.835Z,14.45
2023-11-27T07:31:06.834Z,16.95
2023-11-27T07:33:35.256Z,12.05
2023-11-27T07:36:02.065Z,14.18
2023-11-27T07:38:29.679Z,11.80
2023-11-27T07:40:57.414Z,14.20
2023-11-27T07:43:24.255Z,13.93
2023-11-27T07:45:51.170Z,13.80
2023-11-27T07:48:19.766Z,13.25
2023-11-27T07:50:47.072Z,14.10
2023-11-27T07:53:13.841Z,15.57
2023-11-27T07:55:41.505Z,16.23
2023-11-27T07:58:08.728Z,14.10
2023-11-27T08:00:35.556Z,13.88
2023-11-27T08:03:02.256Z,15.38
2023-11-27T08:05:30.952Z,15.80
2023-11-27T08:07:58.032Z,13.85
2023-11-27T08:10:25.109Z,11.50
2023-11-27T08:13:28.728Z,11.48
2023-11-27T08:15:55.585Z,11.52
2023-11-27T08:18:22.416Z,12.75
2023-11-27T08:20:51.277Z,11.93
2023-11-27T08:23:18.150Z,12.77
2023-11-27T08:25:47.960Z,15.90
2023-11-27T08:28:14.914Z,12.73
2023-11-27T08:30:43.264Z,10.48
2023-11-27T08:33:10.373Z,9.98
2023-11-27T08:35:37.262Z,11.93
2023-11-27T08:38:05.633Z,13.20
2023-11-27T08:40:32.767Z,14.50
2023-11-27T08:43:01.648Z,12.88
2023-11-27T08:45:28.680Z,11.77
2023-11-27T08:47:56.944Z,13.02
2023-11-27T08:50:26.490Z,15.40
2023-11-27T08:52:59.987Z,12.30
2023-11-27T08:55:32.828Z,13.98
2023-11-27T08:58:04.822Z,16.38
2023-11-27T09:00:32.460Z,14.70
2023-11-27T09:03:01.514Z,12.32
2023-11-27T09:05:33.392Z,15.95
2023-11-27T09:08:06.258Z,12.40
2023-11-27T09:10:34.716Z,15.27
2023-11-27T09:13:01.716Z,24.63
2023-11-27T09:15:28.667Z,19.27
2023-11-27T09:17:55.470Z,21.85
2023-11-27T09:20:22.364Z,14.52
2023-11-27T09:22:49.143Z,16.25
2023-11-27T09:25:16.697Z,14.25
2023-11-27T09:27:43.861Z,15.23
2023-11-27T09:30:11.737Z,14.13
2023-11-27T09:32:39.542Z,13.80
2023-11-27T09:35:16.819Z,12.20
2023-11-27T09:37:44.163Z,11.85
2023-11-27T09:40:14.051Z,11.00
2023-11-27T09:42:47.101Z,11.95
2023-11-27T09:45:20.555Z,12.05
2023-11-27T09:47:52.484Z,11.73
2023-11-27T09:50:22.032Z,11.48
2023-11-27T09:53:00.994Z,14.35
2023-11-27T09:55:33.451Z,11.93
2023-11-27T09:58:00.982Z,11.68
2023-11-27T10:00:29.097Z,12.00
2023-11-27T10:02:57.000Z,13.38
2023-11-27T10:05:24.197Z,12.30
2023-11-27T10:07:52.592Z,12.45
2023-11-27T10:10:27.650Z,12.77
2023-11-27T10:12:59.415Z,10.10
2023-11-27T10:15:27.992Z,12.00
2023-11-27T10:17:57.547Z,11.45
2023-11-27T10:20:30.163Z,10.55
2023-11-27T10:23:00.262Z,14.02
2023-11-27T10:28:01.917Z,10.98
2023-11-27T10:30:32.920Z,11.65
2023-11-27T10:33:00.649Z,10.35
2023-11-27T10:35:28.005Z,11.80
2023-11-27T10:37:56.209Z,12.15
2023-11-27T10:40:28.107Z,13.23
2023-11-27T10:43:02.517Z,12.98
2023-11-27T10:45:31.463Z,12.63
2023-11-27T10:48:03.779Z,12.40
2023-11-27T10:50:34.560Z,16.15
2023-11-27T10:53:01.789Z,13.88
2023-11-27T10:55:30.726Z,13.57
2023-11-27T10:57:58.869Z,12.82
2023-11-27T11:00:40.569Z,13.65
2023-11-27T11:03:16.288Z,12.98
2023-11-27T11:05:51.208Z,11.70
2023-11-27T11:08:23.713Z,10.90
2023-11-27T11:10:50.741Z,13.45
2023-11-27T11:13:19.234Z,14.25
2023-11-27T11:16:12.861Z,14.38
2023-11-27T11:18:52.834Z,13.50
2023-11-27T11:24:03.457Z,11.75
2023-11-27T11:26:50.002Z,11.77
2023-11-27T11:29:34.293Z,10.35
2023-11-27T11:32:09.906Z,12.73
2023-11-27T11:34:39.677Z,12.40
2023-11-27T11:37:08.536Z,13.05
2023-11-27T11:39:35.701Z,10.65
2023-11-27T11:42:14.635Z,12.38
2023-11-27T11:44:42.841Z,8.90
2023-11-27T11:47:30.143Z,11.75
2023-11-27T11:50:26.935Z,22.33
2023-11-27T11:52:56.856Z,12.13
2023-11-27T11:55:34.877Z,13.00
2023-11-27T11:58:07.605Z,10.80
2023-11-27T12:00:45.434Z,11.15
2023-11-27T12:03:24.803Z,12.98
2023-11-27T12:05:56.633Z,10.82
2023-11-27T12:08:25.803Z,10.45
2023-11-27T12:10:57.207Z,9.57
2023-11-27T12:13:25.959Z,10.90
2023-11-27T12:15:54.196Z,11.73
2023-11-27T12:18:21.543Z,12.57
2023-11-27T12:20:50.179Z,12.02
2023-11-27T12:23:18.633Z,10.25
2023-11-27T12:25:45.711Z,11.63
2023-11-27T12:28:14.283Z,11.60
2023-11-27T12:30:41.803Z,12.35
2023-11-27T12:33:10.065Z,10.88
2023-11-27T12:35:38.710Z,11.75
2023-11-27T12:38:09.565Z,10.75
2023-11-27T12:40:37.181Z,11.98
2023-11-27T12:43:08.487Z,13.50
2023-11-27T12:45:36.926Z,10.95
2023-11-27T12:48:09.918Z,12.23
2023-11-27T12:50:42.396Z,9.48
2023-11-27T12:53:10.216Z,12.32
2023-11-27T12:55:49.907Z,10.95
2023-11-27T12:58:22.382Z,10.75
2023-11-27T13:00:49.816Z,10.00
2023-11-27T13:03:21.162Z,9.93
2023-11-27T13:05:53.524Z,10.45
2023-11-27T13:08:33.944Z,12.13
2023-11-27T13:11:06.126Z,10.93
2023-11-27T13:13:33.109Z,11.07
2023-11-27T13:16:03.911Z,9.40
2023-11-27T13:18:33.419Z,10.65
2023-11-27T13:21:01.046Z,7.68
2023-11-27T13:23:28.524Z,9.93
2023-11-27T13:26:18.190Z,8.63
2023-11-27T13:28:45.170Z,7.68
2023-11-27T13:31:17.240Z,8.25
2023-11-27T13:33:44.471Z,10.35
2023-11-27T13:36:19.932Z,8.90
2023-11-27T13:38:48.490Z,6.28
2023-11-27T13:41:16.163Z,8.13
2023-11-27T13:43:43.442Z,8.23
2023-11-27T13:46:11.801Z,7.82
2023-11-27T13:48:39.108Z,6.13
2023-11-27T13:51:15.674Z,11.20
2023-11-27T13:53:43.712Z,9.05
2023-11-27T13:56:11.528Z,11.13
2023-11-27T13:58:38.455Z,7.15
2023-11-27T14:01:12.207Z,6.72
2023-11-27T14:03:43.458Z,8.38
2023-11-27T14:06:26.627Z,7.05
2023-11-27T14:08:55.280Z,7.15
2023-11-27T14:11:34.034Z,7.80
2023-11-27T14:14:07.336Z,8.80
2023-11-27T14:16:43.714Z,8.40
2023-11-27T14:19:13.609Z,9.85
2023-11-27T14:22:10.264Z,10.60
2023-11-27T14:25:06.465Z,9.55
2023-11-27T14:27:43.111Z,7.47
2023-11-27T14:30:14.919Z,6.88
2023-11-27T14:32:42.524Z,7.32
2023-11-27T14:35:09.438Z,7.80
2023-11-27T14:37:36.607Z,7.10
2023-11-27T14:40:18.874Z,6.57
2023-11-27T14:42:46.342Z,8.20
2023-11-27T14:45:16.326Z,9.43
2023-11-27T14:47:47.168Z,9.13
2023-11-27T14:50:21.770Z,8.77
2023-11-27T14:52:51.189Z,7.72
2023-11-27T14:55:20.946Z,8.88
2023-11-27T14:57:49.583Z,10.00
2023-11-27T15:00:28.811Z,8.45
2023-11-27T15:05:23.784Z,12.00
2023-11-27T15:07:50.681Z,11.50
2023-11-27T15:10:18.331Z,13.77
2023-11-27T15:12:46.543Z,13.98
2023-11-27T15:15:15.846Z,14.60
2023-11-27T15:17:42.716Z,15.03
2023-11-27T15:20:13.930Z,24.67
2023-11-27T15:22:40.844Z,18.27
2023-11-27T15:25:09.368Z,30.92
2023-11-27T15:27:39.378Z,29.75
2023-11-27T15:30:10.242Z,22.42
2023-11-27T15:32:37.261Z,23.35
2023-11-27T15:35:05.319Z,19.85
2023-11-27T15:37:32.274Z,19.70
2023-11-27T15:39:59.839Z,19.55
2023-11-27T15:42:28.487Z,16.85
2023-11-27T15:44:55.715Z,19.38
2023-11-27T15:47:24.106Z,11.48
2023-11-27T15:49:51.113Z,11.68
2023-11-27T15:52:18.251Z,9.27
2023-11-27T15:54:45.173Z,12.57
2023-11-27T15:57:12.183Z,15.32
2023-11-27T15:59:44.473Z,13.93
2023-11-27T16:02:13.258Z,11.98
2023-11-27T16:04:40.371Z,10.45
2023-11-27T16:07:07.291Z,11.43
2023-11-27T16:09:34.637Z,9.27
2023-11-27T16:12:01.515Z,8.35
2023-11-27T16:14:30.483Z,9.25
2023-11-27T16:16:57.355Z,11.13
2023-11-27T16:19:25.384Z,10.93
2023-11-27T16:21:52.233Z,7.60
2023-11-27T16:24:19.435Z,7.75
2023-11-27T16:26:48.701Z,11.13
2023-11-27T16:29:18.353Z,9.00
2023-11-27T16:31:49.253Z,7.88
2023-11-27T16:34:16.505Z,8.55
2023-11-27T16:36:43.546Z,7.97
2023-11-27T16:39:14.457Z,8.70
2023-11-27T16:41:41.994Z,7.03
2023-11-27T16:44:08.914Z,10.15
2023-11-27T16:46:36.014Z,9.05
2023-11-27T16:49:02.924Z,8.05
2023-11-27T16:51:29.687Z,9.90
2023-11-27T16:53:56.452Z,7.68
2023-11-27T16:56:25.861Z,7.85
2023-11-27T16:58:52.862Z,7.70
2023-11-27T17:01:21.169Z,7.97
2023-11-27T17:03:50.391Z,11.18
2023-11-27T17:06:19.697Z,9.70
2023-11-27T17:08:47.700Z,14.00
2023-11-27T17:11:16.087Z,8.18
2023-11-27T17:13:45.892Z,9.30
2023-11-27T17:16:13.795Z,9.10
2023-11-27T17:18:40.706Z,9.88
2023-11-27T17:21:08.331Z,9.77
2023-11-27T17:23:36.990Z,11.10
2023-11-27T17:26:03.978Z,8.82
2023-11-27T17:28:32.081Z,9.65
2023-11-27T17:30:58.999Z,9.90
2023-11-27T17:33:25.733Z,10.77
2023-11-27T17:35:52.901Z,9.80
2023-11-27T17:38:19.869Z,8.77
2023-11-27T17:40:46.800Z,9.13
2023-11-27T17:43:17.789Z,9.85
2023-11-27T17:45:47.565Z,9.55
2023-11-27T17:48:17.535Z,8.93
2023-11-27T17:53:11.580Z,12.77
2023-11-27T17:55:45.748Z,12.65
2023-11-27T17:58:19.270Z,7.50
2023-11-27T18:00:47.694Z,10.63
2023-11-27T18:03:15.552Z,9.82
2023-11-27T18:05:42.332Z,8.63
2023-11-27T18:08:13.218Z,8.75
2023-11-27T18:10:40.475Z,8.00
2023-11-27T18:13:07.405Z,8.27
2023-11-27T18:15:34.253Z,10.18
2023-11-27T18:18:01.481Z,10.43
2023-11-27T18:20:29.298Z,9.35
2023-11-27T18:22:56.067Z,14.32
2023-11-27T18:25:24.541Z,12.75
2023-11-27T18:28:00.867Z,9.15
2023-11-27T18:30:29.035Z,10.05
2023-11-27T18:32:55.971Z,13.35
2023-11-27T18:35:24.036Z,10.93
2023-11-27T18:37:50.787Z,10.23
2023-11-27T18:40:19.084Z,9.23
2023-11-27T18:42:49.282Z,8.30
2023-11-27T18:45:22.631Z,12.52
2023-11-27T18:47:50.699Z,10.65
2023-11-27T18:50:17.535Z,10.15
2023-11-27T18:52:44.506Z,10.68
2023-11-27T18:55:12.035Z,9.40
2023-11-27T18:57:39.033Z,11.55
2023-11-27T19:00:07.652Z,10.55
2023-11-27T19:02:34.774Z,9.00
2023-11-27T19:05:01.933Z,12.70
2023-11-27T19:07:29.147Z,8.82
2023-11-27T19:09:56.347Z,10.70
2023-11-27T19:12:23.393Z,9.25
2023-11-27T19:14:53.213Z,11.52
2023-11-27T19:17:21.461Z,9.85
2023-11-27T19:19:48.478Z,12.23
2023-11-27T19:22:15.355Z,10.93
2023-11-27T19:24:43.321Z,15.48
2023-11-27T19:27:10.180Z,10.00
2023-11-27T19:29:37.259Z,9.82
2023-11-27T19:32:04.432Z,14.55
2023-11-27T19:34:32.815Z,13.25
2023-11-27T19:36:59.873Z,13.65
2023-11-27T19:39:26.767Z,14.10
2023-11-27T19:41:53.793Z,10.10
2023-11-27T19:44:21.643Z,13.82
2023-11-27T19:46:51.812Z,11.43
2023-11-27T19:49:20.923Z,10.23
2023-11-27T19:51:48.279Z,9.82
2023-11-27T19:54:19.683Z,8.93
2023-11-27T19:56:47.594Z,11.07
2023-11-27T19:59:14.377Z,9.60
2023-11-27T20:01:41.483Z,9.02
2023-11-27T20:04:08.408Z,10.35
2023-11-27T20:06:40.748Z,10.63
2023-11-27T20:09:12.835Z,12.60
2023-11-27T20:11:40.212Z,14.85
2023-11-27T20:14:08.001Z,10.88
2023-11-27T20:16:36.648Z,10.82
2023-11-27T20:19:06.523Z,11.50
2023-11-27T20:24:00.933Z,9.93
2023-11-27T20:26:29.601Z,9.85
2023-11-27T20:29:02.362Z,11.02
2023-11-27T20:31:36.206Z,9.13
2023-11-27T20:34:04.928Z,9.85
2023-11-27T20:36:32.195Z,10.15
2023-11-27T20:39:01.227Z,10.35
2023-11-27T20:41:28.409Z,10.20
2023-11-27T20:43:59.529Z,8.75
2023-11-27T20:46:28.753Z,7.95
2023-11-27T20:48:59.605Z,8.10
2023-11-27T20:51:30.662Z,9.52
2023-11-27T20:53:58.094Z,9.68
2023-11-27T20:56:26.760Z,10.77
2023-11-27T20:58:53.760Z,9.88
2023-11-27T21:01:24.388Z,10.27
2023-11-27T21:03:52.896Z,8.15
2023-11-27T21:06:26.323Z,8.20
2023-11-27T21:08:53.744Z,10.73
2023-11-27T21:11:24.146Z,10.00
2023-11-27T21:13:52.788Z,12.68
2023-11-27T21:16:21.581Z,10.80
2023-11-27T21:18:49.420Z,9.75
2023-11-27T21:21:16.322Z,9.57
2023-11-27T21:23:43.990Z,10.60
2023-11-27T21:26:13.495Z,8.52
2023-11-27T21:28:42.643Z,9.85
2023-11-27T21:31:10.605Z,8.80
2023-11-27T21:33:38.010Z,7.07
2023-11-27T21:36:04.994Z,8.10
2023-11-27T21:38:31.871Z,8.23
2023-11-27T21:40:58.934Z,8.57
2023-11-27T21:43:25.830Z,7.50
2023-11-27T21:45:54.317Z,9.30
2023-11-27T21:48:21.615Z,9.70
2023-11-27T21:50:48.465Z,8.55
2023-11-27T21:53:16.541Z,9.02
2023-11-27T21:55:43.532Z,8.50
2023-11-27T21:58:10.526Z,9.95
2023-11-27T22:00:37.481Z,8.60
2023-11-27T22:03:04.634Z,9.63
2023-11-27T22:05:31.527Z,9.23
2023-11-27T22:07:58.585Z,9.07
2023-11-27T22:10:25.470Z,9.20
2023-11-27T22:12:52.341Z,7.70
2023-11-27T22:15:19.330Z,8.02
2023-11-27T22:17:46.243Z,7.15
2023-11-27T22:20:13.454Z,5.65
2023-11-27T22:22:41.754Z,9.60
2023-11-27T22:25:09.572Z,8.10
2023-11-27T22:27:37.565Z,8.18
2023-11-27T22:30:06.517Z,6.90
2023-11-27T22:32:33.872Z,6.32
2023-11-27T22:35:00.770Z,6.63
2023-11-27T22:37:27.578Z,7.68
2023-11-27T22:39:54.628Z,5.18
2023-11-27T22:42:21.403Z,6.50
2023-11-27T22:44:48.352Z,6.75
2023-11-27T22:47:15.312Z,7.20
2023-11-27T22:49:43.096Z,7.35
2023-11-27T22:52:09.856Z,5.43
2023-11-27T22:54:43.015Z,5.93
2023-11-27T22:57:10.708Z,4.80
2023-11-27T22:59:39.954Z,6.35
2023-11-27T23:02:08.087Z,5.22
2023-11-27T23:04:35.841Z,5.07
2023-11-27T23:07:02.806Z,4.00
2023-11-27T23:09:29.620Z,5.55
2023-11-27T23:11:56.416Z,6.18
2023-11-27T23:14:24.183Z,4.32
2023-11-27T23:16:51.123Z,3.63
2023-11-27T23:19:17.818Z,6.10
2023-11-27T23:21:44.998Z,7.35
2023-11-27T23:24:20.207Z,4.40
2023-11-27T23:26:51.383Z,3.60
2023-11-27T23:29:18.497Z,4.57
2023-11-27T23:31:48.415Z,4.40
2023-11-27T23:34:15.290Z,3.65
2023-11-27T23:36:42.370Z,3.50
2023-11-27T23:39:09.806Z,4.05
2023-11-27T23:41:36.780Z,3.90
2023-11-27T23:44:04.229Z,3.60
2023-11-27T23:46:31.536Z,2.55
2023-11-27T23:48:58.793Z,2.83
2023-11-27T23:51:29.353Z,3.53
2023-11-27T23:53:56.488Z,4.03
2023-11-27T23:56:23.427Z,3.25
2023-11-27T23:58:50.568Z,4.20
